EmailTwitter


Surface observations / Canada / CYYZ (71624)

Regions: Quebec | Canada | USA | Europe | France | UK | Elsewhere
Station
Display
Info & Location for CYYZ (71624) | Help decoding METAR

Weather Conditions observed on 2018/08/17 at 14:15 UTC at TORONTO A, ON (CYYZ)

Sky conditions: partly cloudy.

Temperature: 25.0 Celsius.

Dewpoint: 22.0 Celsius.

Relative Humidity: 83%

Humidex: 34.

Winds: Southwest at 13 km/h or 7 knots.

Mean Sea level Pressure: 101.24 kilopascals.

Altimeter Setting (QNH): 101.25 kilopascals or 29.90 inches of mercury.

Horizontal visibility: 12.00 statute miles or 19.20 kilometers.

Height of the Ceiling: 1158 metres ( 3800 feet ).

Coded METAR:

CYYZ 171415Z 21007KT 12SM FEW018 BKN038TCU BKN240 25/22 A2990 RMK CF2TCU5CI1 CI

TR SLP124 DENSITY ALT 1900FT=